Time;durP1;ratioP1;P1;durP2;ratioP2;P2;SDS_P1;SDS_P2;PMS_P1;PMS_P2;Temp;Humidity;BMP_temperature;BMP_pressure;BME280_temperature;BME280_humidity;BME280_pressure;Samples;Min_cycle;Max_cycle;Signal;HPM_P1;HPM_P2
2022/03/30 00:00:13;;;;;;;;;;;14.20;74.30;14.60;98536.00;;;;339089;28;91132;-93
2022/03/30 00:00:25;;;;;;;;;;;14.20;74.40;14.50;98535.00;;;;337829;28;95378;-94
2022/03/30 00:00:37;;;;;;;;;;;14.20;74.50;14.50;98537.00;;;;336339;28;91954;-93
2022/03/30 00:00:49;;;;;;;;;;;14.20;74.60;14.50;98528.00;;;;337566;28;94869;-93
2022/03/30 00:01:01;;;;;;;;;;;14.20;74.60;14.50;98529.00;;;;337844;28;92165;-94
2022/03/30 00:01:13;;;;;;;;;;;14.20;74.70;14.50;98534.00;;;;340566;28;96730;-93
2022/03/30 00:01:25;;;;;;;;;;;14.20;74.60;14.50;98527.00;;;;341300;28;93024;-93
2022/03/30 00:01:37;;;;;;;;;;;14.20;74.50;14.50;98526.00;;;;340580;28;96320;-94
2022/03/30 00:01:50;;;;;;;;;;;14.20;74.60;14.50;98529.00;;;;341584;28;92140;-94
2022/03/30 00:02:03;;;;;;;;;;;14.20;74.70;14.50;98536.00;;;;341801;28;93892;-93
2022/03/30 00:02:15;;;;;;;;;;;14.20;74.70;14.50;98523.00;;;;341656;28;91927;-94
2022/03/30 00:02:27;;;;;;;;;;;14.20;74.70;14.50;98523.00;;;;339010;28;96219;-93
2022/03/30 00:02:39;;;;;;;;;;;14.20;74.70;14.50;98521.00;;;;340289;28;92085;-93
2022/03/30 00:02:51;;;;;;;;;;;14.20;74.90;14.40;98519.00;;;;342035;28;95350;-93
2022/03/30 00:03:04;;;;;;;;;;;14.20;75.00;14.40;98535.00;;;;341378;28;91324;-93
2022/03/30 00:03:17;;;;;;;;;;;14.10;74.90;14.40;98524.00;;;;340642;28;95775;-94
2022/03/30 00:03:29;;;;;;;;;;;14.10;74.90;14.40;98535.00;;;;343017;28;92994;-94
2022/03/30 00:03:41;;;;;;;;;;;14.20;75.00;14.50;98523.00;;;;341841;28;96587;-94
2022/03/30 00:03:53;;;;;;;;;;;14.20;74.80;14.50;98519.00;;;;340496;28;92329;-94
2022/03/30 00:04:05;;;;;;;;;;;14.20;74.60;14.50;98517.00;;;;342242;28;94899;-93
2022/03/30 00:04:16;;;;;;;;;;;14.10;74.60;14.50;98522.00;;;;340260;28;91218;-93
2022/03/30 00:04:28;;;;;;;;;;;14.10;74.40;14.50;98527.00;;;;337937;28;94045;-93
2022/03/30 00:04:40;;;;;;;;;;;14.20;74.70;14.50;98531.00;;;;338861;28;91172;-93
2022/03/30 00:04:52;;;;;;;;;;;14.20;74.80;14.50;98531.00;;;;339091;28;94400;-94
2022/03/30 00:05:04;;;;;;;;;;;14.20;74.70;14.40;98537.00;;;;338961;28;92092;-94
2022/03/30 00:05:16;;;;;;;;;;;14.10;74.60;14.30;98523.00;;;;336707;28;92383;-93
2022/03/30 00:05:28;;;;;;;;;;;14.20;74.70;14.30;98521.00;;;;336299;28;92960;-93
2022/03/30 00:05:40;;;;;;;;;;;14.10;74.80;14.40;98519.00;;;;339084;28;96885;-94
2022/03/30 00:05:57;;;;;;;;;;;14.10;74.70;14.50;98525.00;;;;341642;28;91209;-93
2022/03/30 00:06:09;;;;;;;;;;;14.10;74.50;14.50;98521.00;;;;341913;28;95967;-94
2022/03/30 00:06:21;;;;;;;;;;;14.10;74.70;14.50;98525.00;;;;341662;28;92155;-94
2022/03/30 00:06:33;;;;;;;;;;;14.20;74.60;14.60;98529.00;;;;343320;28;95046;-93
2022/03/30 00:06:45;;;;;;;;;;;14.20;74.70;14.60;98527.00;;;;341612;28;92067;-93
2022/03/30 00:06:57;;;;;;;;;;;14.20;74.80;14.60;98520.00;;;;338760;28;93536;-93
2022/03/30 00:07:09;;;;;;;;;;;14.20;74.90;14.50;98523.00;;;;340024;28;91261;-94
2022/03/30 00:07:21;;;;;;;;;;;14.20;74.80;14.50;98524.00;;;;340819;28;95136;-93
2022/03/30 00:07:33;;;;;;;;;;;14.20;74.80;14.50;98524.00;;;;341714;28;92911;-93
2022/03/30 00:07:45;;;;;;;;;;;14.20;74.70;14.50;98521.00;;;;343205;28;96489;-93
2022/03/30 00:07:57;;;;;;;;;;;14.20;74.80;14.40;98519.00;;;;339250;28;91224;-94
2022/03/30 00:08:09;;;;;;;;;;;14.10;74.80;14.50;98524.00;;;;339298;28;94626;-93
2022/03/30 00:08:21;;;;;;;;;;;14.10;74.70;14.50;98524.00;;;;340314;28;92494;-93
2022/03/30 00:08:33;;;;;;;;;;;14.10;74.70;14.50;98519.00;;;;337912;28;96376;-94
2022/03/30 00:08:45;;;;;;;;;;;14.10;74.60;14.60;98521.00;;;;339028;28;91993;-93
2022/03/30 00:08:57;;;;;;;;;;;14.20;74.60;14.50;98520.00;;;;340544;28;95634;-94
2022/03/30 00:09:08;;;;;;;;;;;14.10;74.60;14.50;98518.00;;;;338940;28;92057;-93
2022/03/30 00:09:20;;;;;;;;;;;14.10;74.70;14.40;98522.00;;;;341887;28;95522;-93
2022/03/30 00:09:32;;;;;;;;;;;14.20;75.00;14.40;98519.00;;;;340315;28;92945;-94
2022/03/30 00:09:44;;;;;;;;;;;14.20;75.10;14.50;98522.00;;;;340576;28;95540;-93
2022/03/30 00:09:56;;;;;;;;;;;14.10;74.90;14.40;98524.00;;;;337070;28;91613;-94
2022/03/30 00:10:08;;;;;;;;;;;14.20;74.90;14.30;98518.00;;;;337806;28;93050;-93
2022/03/30 00:10:20;;;;;;;;;;;14.10;75.00;14.30;98525.00;;;;339293;28;92078;-94
2022/03/30 00:10:33;;;;;;;;;;;14.10;74.80;14.30;98514.00;;;;339219;28;96155;-94
2022/03/30 00:10:45;;;;;;;;;;;14.10;74.70;14.40;98519.00;;;;340326;28;91959;-94
2022/03/30 00:10:57;;;;;;;;;;;14.10;74.50;14.40;98529.00;;;;339433;28;95845;-94
2022/03/30 00:11:10;;;;;;;;;;;14.10;74.50;14.40;98515.00;;;;336159;28;92121;-94
2022/03/30 00:11:22;;;;;;;;;;;14.10;74.60;14.40;98518.00;;;;336456;28;95078;-94
2022/03/30 00:11:34;;;;;;;;;;;14.10;74.70;14.40;98519.00;;;;338943;28;93044;-94
2022/03/30 00:11:45;;;;;;;;;;;14.20;74.70;14.40;98519.00;;;;339106;28;97019;-94
2022/03/30 00:11:57;;;;;;;;;;;14.10;74.70;14.40;98518.00;;;;338956;28;92044;-94
2022/03/30 00:12:09;;;;;;;;;;;14.10;74.80;14.40;98521.00;;;;340563;28;94818;-94
2022/03/30 00:12:21;;;;;;;;;;;14.10;75.10;14.50;98520.00;;;;338863;28;91273;-93
2022/03/30 00:12:34;;;;;;;;;;;14.10;74.90;14.50;98516.00;;;;336311;28;96504;-94
2022/03/30 00:12:47;;;;;;;;;;;14.10;74.70;14.60;98516.00;;;;337576;28;92111;-93
2022/03/30 00:12:59;;;;;;;;;;;14.10;74.70;14.60;98513.00;;;;341690;28;95788;-94
2022/03/30 00:13:11;;;;;;;;;;;14.10;74.50;14.60;98523.00;;;;340191;28;92127;-94
2022/03/30 00:13:23;;;;;;;;;;;14.20;74.50;14.60;98516.00;;;;339225;28;94756;-93
2022/03/30 00:13:38;;;;;;;;;;;14.20;74.60;14.50;98523.00;;;;339008;28;92988;-92
2022/03/30 00:13:50;;;;;;;;;;;14.10;74.60;14.50;98519.00;;;;341792;28;97962;-93
2022/03/30 00:14:02;;;;;;;;;;;14.20;74.50;14.50;98518.00;;;;340377;28;92143;-94
2022/03/30 00:14:14;;;;;;;;;;;14.10;74.60;14.50;98524.00;;;;340521;28;93589;-93
2022/03/30 00:14:25;;;;;;;;;;;14.20;74.60;14.50;98515.00;;;;340203;28;92023;-94
2022/03/30 00:14:37;;;;;;;;;;;14.20;74.60;14.50;98517.00;;;;340660;28;94496;-94
2022/03/30 00:14:49;;;;;;;;;;;14.10;74.70;14.50;98516.00;;;;341796;28;91053;-94
2022/03/30 00:15:01;;;;;;;;;;;14.20;74.80;14.50;98511.00;;;;340325;28;96237;-94
2022/03/30 00:15:14;;;;;;;;;;;14.10;75.00;14.50;98519.00;;;;338981;28;91199;-94
2022/03/30 00:15:26;;;;;;;;;;;14.10;74.90;14.50;98523.00;;;;341523;28;96412;-94
2022/03/30 00:15:38;;;;;;;;;;;14.20;74.60;14.50;98519.00;;;;343128;28;92905;-93
2022/03/30 00:15:50;;;;;;;;;;;14.10;74.70;14.40;98524.00;;;;338639;28;96431;-93
2022/03/30 00:16:03;;;;;;;;;;;14.10;74.70;14.30;98518.00;;;;341459;28;92058;-94
2022/03/30 00:16:15;;;;;;;;;;;14.20;74.90;14.30;98515.00;;;;340547;28;95300;-93
2022/03/30 00:16:27;;;;;;;;;;;14.10;74.80;14.30;98512.00;;;;337427;28;92158;-94
2022/03/30 00:16:40;;;;;;;;;;;14.10;74.80;14.20;98517.00;;;;339316;28;95268;-94
2022/03/30 00:16:52;;;;;;;;;;;14.10;74.90;14.20;98518.00;;;;340056;28;91907;-93
2022/03/30 00:17:04;;;;;;;;;;;14.10;74.80;14.20;98513.00;;;;337870;28;94929;-93
2022/03/30 00:17:17;;;;;;;;;;;14.10;74.90;14.30;98520.00;;;;340336;28;91883;-94
2022/03/30 00:17:31;;;;;;;;;;;14.10;74.80;14.40;98517.00;;;;340444;28;96411;-93
2022/03/30 00:17:43;;;;;;;;;;;14.00;74.70;14.30;98522.00;;;;340195;28;93064;-94
2022/03/30 00:17:55;;;;;;;;;;;14.10;74.90;14.40;98517.00;;;;341678;28;96732;-93
2022/03/30 00:18:07;;;;;;;;;;;14.10;75.00;14.40;98514.00;;;;339017;28;91968;-93
2022/03/30 00:18:19;;;;;;;;;;;14.00;75.30;14.30;98516.00;;;;339211;28;95876;-93
2022/03/30 00:18:31;;;;;;;;;;;14.10;75.40;14.40;98517.00;;;;340281;28;92113;-93
2022/03/30 00:18:43;;;;;;;;;;;14.00;75.40;14.40;98521.00;;;;337868;28;95918;-93
2022/03/30 00:18:55;;;;;;;;;;;14.00;75.10;14.40;98521.00;;;;339813;28;92174;-94
2022/03/30 00:19:07;;;;;;;;;;;14.00;74.90;14.30;98518.00;;;;341829;28;94948;-93
2022/03/30 00:19:19;;;;;;;;;;;14.10;75.20;14.30;98517.00;;;;339072;28;91169;-93
2022/03/30 00:19:31;;;;;;;;;;;14.00;75.10;14.40;98513.00;;;;339117;28;96086;-94
2022/03/30 00:19:43;;;;;;;;;;;14.10;75.00;14.30;98517.00;;;;341631;28;92185;-94
2022/03/30 00:19:56;;;;;;;;;;;14.10;75.20;14.30;98516.00;;;;339721;28;95741;-93
2022/03/30 00:20:09;;;;;;;;;;;14.10;75.30;14.30;98519.00;;;;337591;28;92085;-94
2022/03/30 00:20:21;;;;;;;;;;;14.00;75.20;14.30;98513.00;;;;339163;28;94354;-93
2022/03/30 00:20:33;;;;;;;;;;;14.00;75.30;14.40;98520.00;;;;339957;28;92133;-94
2022/03/30 00:20:45;;;;;;;;;;;14.10;75.30;14.40;98517.00;;;;340565;28;96046;-93
2022/03/30 00:20:57;;;;;;;;;;;14.10;75.20;14.40;98517.00;;;;340054;28;91980;-94
2022/03/30 00:21:09;;;;;;;;;;;14.00;75.20;14.40;98513.00;;;;340405;28;96015;-93
2022/03/30 00:21:21;;;;;;;;;;;14.00;75.10;14.40;98519.00;;;;337594;28;92048;-94
2022/03/30 00:21:33;;;;;;;;;;;14.00;75.20;14.30;98511.00;;;;340574;28;95096;-93
2022/03/30 00:21:46;;;;;;;;;;;14.10;75.40;14.30;98513.00;;;;338797;28;92952;-94
2022/03/30 00:21:57;;;;;;;;;;;14.00;75.50;14.20;98512.00;;;;337624;28;95599;-94
2022/03/30 00:22:10;;;;;;;;;;;14.00;75.30;14.20;98519.00;;;;338803;28;91343;-93
2022/03/30 00:22:22;;;;;;;;;;;14.00;75.60;14.30;98524.00;;;;339636;28;94454;-94
2022/03/30 00:22:34;;;;;;;;;;;14.00;75.60;14.20;98519.00;;;;341698;28;91481;-93
2022/03/30 00:22:46;;;;;;;;;;;14.00;75.80;14.30;98511.00;;;;340603;28;94739;-94
2022/03/30 00:22:58;;;;;;;;;;;14.00;75.70;14.40;98520.00;;;;340385;28;92109;-94
2022/03/30 00:23:10;;;;;;;;;;;14.00;75.70;14.30;98509.00;;;;341778;28;96341;-94
2022/03/30 00:23:22;;;;;;;;;;;14.00;75.70;14.40;98518.00;;;;339009;28;91217;-93
2022/03/30 00:23:34;;;;;;;;;;;14.00;75.50;14.50;98513.00;;;;339161;28;95581;-93
2022/03/30 00:23:46;;;;;;;;;;;14.00;75.40;14.40;98511.00;;;;341289;28;93142;-93
2022/03/30 00:23:58;;;;;;;;;;;14.00;75.50;14.40;98517.00;;;;337864;28;97166;-93
2022/03/30 00:24:10;;;;;;;;;;;14.00;75.50;14.40;98516.00;;;;340317;28;91261;-94
2022/03/30 00:24:22;;;;;;;;;;;14.00;75.30;14.40;98511.00;;;;339101;28;95094;-94
2022/03/30 00:24:44;;;;;;;;;;;14.10;75.40;14.40;98513.00;;;;338893;28;92132;-93
2022/03/30 00:24:56;;;;;;;;;;;14.00;75.40;14.40;98514.00;;;;341532;28;94719;-94
2022/03/30 00:25:09;;;;;;;;;;;14.00;75.50;14.30;98507.00;;;;340116;28;92585;-93
2022/03/30 00:25:21;;;;;;;;;;;14.00;75.70;14.30;98515.00;;;;340857;28;96232;-93
2022/03/30 00:25:33;;;;;;;;;;;14.00;75.70;14.40;98513.00;;;;340279;28;92025;-94
2022/03/30 00:25:45;;;;;;;;;;;14.00;75.50;14.30;98513.00;;;;339276;28;94553;-93
2022/03/30 00:25:57;;;;;;;;;;;14.00;75.60;14.30;98505.00;;;;341689;28;93087;-94
2022/03/30 00:26:09;;;;;;;;;;;14.00;75.70;14.20;98512.00;;;;339198;28;97170;-93
2022/03/30 00:26:21;;;;;;;;;;;14.00;75.60;14.20;98511.00;;;;338839;28;92211;-94
2022/03/30 00:26:33;;;;;;;;;;;14.00;75.70;14.20;98509.00;;;;340550;28;94573;-94
2022/03/30 00:26:45;;;;;;;;;;;14.00;75.80;14.30;98508.00;;;;341667;28;92089;-93
2022/03/30 00:26:57;;;;;;;;;;;14.00;75.70;14.30;98508.00;;;;337898;28;96311;-94
2022/03/30 00:27:09;;;;;;;;;;;14.00;75.60;14.30;98512.00;;;;337600;28;91967;-94
2022/03/30 00:27:20;;;;;;;;;;;14.00;75.60;14.20;98514.00;;;;340466;28;95737;-93
2022/03/30 00:27:32;;;;;;;;;;;14.00;75.70;14.20;98509.00;;;;340123;28;92060;-93
2022/03/30 00:27:46;;;;;;;;;;;14.00;75.60;14.20;98509.00;;;;341820;28;96198;-94
2022/03/30 00:27:58;;;;;;;;;;;14.00;75.60;14.20;98512.00;;;;341623;28;93156;-94
2022/03/30 00:28:10;;;;;;;;;;;14.00;75.70;14.20;98509.00;;;;338022;28;96784;-93
2022/03/30 00:28:23;;;;;;;;;;;14.00;75.70;14.20;98508.00;;;;338848;28;92117;-94
2022/03/30 00:28:35;;;;;;;;;;;14.00;75.60;14.20;98499.00;;;;343149;28;95759;-94
2022/03/30 00:28:47;;;;;;;;;;;14.00;75.70;14.30;98508.00;;;;340143;28;91986;-93
2022/03/30 00:28:59;;;;;;;;;;;14.00;75.70;14.30;98511.00;;;;341612;28;96164;-93
2022/03/30 00:29:11;;;;;;;;;;;14.00;75.80;14.20;98505.00;;;;340284;28;92147;-93
2022/03/30 00:29:25;;;;;;;;;;;14.00;75.70;14.20;98505.00;;;;344617;28;96154;-94
2022/03/30 00:29:37;;;;;;;;;;;14.00;75.90;14.20;98513.00;;;;342748;28;92110;-93
2022/03/30 00:29:49;;;;;;;;;;;14.00;76.00;14.20;98508.00;;;;339164;28;96210;-93
2022/03/30 00:30:01;;;;;;;;;;;13.90;75.80;14.20;98512.00;;;;337652;28;92966;-93
2022/03/30 00:30:14;;;;;;;;;;;14.00;75.70;14.10;98511.00;;;;339087;28;97423;-94
2022/03/30 00:30:26;;;;;;;;;;;14.00;75.90;14.20;98512.00;;;;340264;28;91194;-93
2022/03/30 00:30:38;;;;;;;;;;;14.00;75.90;14.30;98508.00;;;;341827;28;96014;-95
2022/03/30 00:30:50;;;;;;;;;;;14.00;75.80;14.30;98507.00;;;;340025;28;91881;-94
2022/03/30 00:31:02;;;;;;;;;;;13.90;75.60;14.40;98507.00;;;;341594;28;95910;-94
2022/03/30 00:31:18;;;;;;;;;;;14.00;75.70;14.40;98509.00;;;;340290;28;92023;-93
2022/03/30 00:31:30;;;;;;;;;;;14.00;75.70;14.40;98513.00;;;;340541;28;95130;-94
2022/03/30 00:31:42;;;;;;;;;;;14.00;75.70;14.30;98506.00;;;;340079;28;92123;-93
2022/03/30 00:31:54;;;;;;;;;;;14.00;75.80;14.20;98506.00;;;;341923;28;95927;-93
2022/03/30 00:32:07;;;;;;;;;;;14.00;75.90;14.20;98516.00;;;;340228;28;92999;-93
2022/03/30 00:32:19;;;;;;;;;;;13.90;75.90;14.30;98507.00;;;;343190;28;97309;-94
2022/03/30 00:32:32;;;;;;;;;;;14.00;76.00;14.40;98513.00;;;;341327;28;92917;-94
2022/03/30 00:32:44;;;;;;;;;;;14.00;75.80;14.30;98509.00;;;;341923;28;94642;-93
2022/03/30 00:32:56;;;;;;;;;;;14.00;76.00;14.40;98514.00;;;;340297;28;91222;-94
2022/03/30 00:33:08;;;;;;;;;;;14.00;76.00;14.40;98516.00;;;;341824;28;94055;-93
2022/03/30 00:33:20;;;;;;;;;;;14.00;76.00;14.30;98512.00;;;;337645;28;92075;-93
2022/03/30 00:33:32;;;;;;;;;;;14.00;76.10;14.30;98513.00;;;;339176;28;96043;-93
2022/03/30 00:33:46;;;;;;;;;;;14.00;76.00;14.40;98518.00;;;;341486;28;91271;-94
2022/03/30 00:33:58;;;;;;;;;;;14.00;75.90;14.40;98513.00;;;;339392;28;94552;-94
2022/03/30 00:34:10;;;;;;;;;;;14.00;76.00;14.30;98513.00;;;;341281;28;92147;-93
2022/03/30 00:34:21;;;;;;;;;;;14.00;76.20;14.30;98513.00;;;;340067;28;96609;-94
2022/03/30 00:34:33;;;;;;;;;;;14.00;76.10;14.40;98505.00;;;;340378;28;91970;-93
2022/03/30 00:34:45;;;;;;;;;;;14.00;76.00;14.30;98515.00;;;;341839;28;95842;-93
2022/03/30 00:34:57;;;;;;;;;;;14.00;76.10;14.30;98503.00;;;;340476;28;92152;-94
2022/03/30 00:35:09;;;;;;;;;;;14.00;76.00;14.30;98509.00;;;;339077;28;95840;-94
2022/03/30 00:35:21;;;;;;;;;;;14.00;75.90;14.40;98506.00;;;;338932;28;92099;-94
2022/03/30 00:35:32;;;;;;;;;;;14.00;76.20;14.40;98514.00;;;;337904;28;94534;-94
2022/03/30 00:35:46;;;;;;;;;;;14.00;75.90;14.40;98509.00;;;;338815;28;91281;-93
2022/03/30 00:35:58;;;;;;;;;;;14.00;75.90;14.30;98510.00;;;;340516;28;94983;-93
2022/03/30 00:36:09;;;;;;;;;;;14.00;76.00;14.30;98505.00;;;;338922;28;92987;-93
2022/03/30 00:36:21;;;;;;;;;;;14.00;76.10;14.30;98516.00;;;;339018;28;96954;-94
2022/03/30 00:36:33;;;;;;;;;;;14.00;76.20;14.30;98500.00;;;;340359;28;91986;-94
2022/03/30 00:36:45;;;;;;;;;;;14.00;76.20;14.20;98506.00;;;;339150;28;96440;-93
2022/03/30 00:36:57;;;;;;;;;;;14.00;76.30;14.20;98502.00;;;;340075;28;91114;-93
2022/03/30 00:37:09;;;;;;;;;;;13.90;76.20;14.20;98512.00;;;;341539;28;95803;-94
2022/03/30 00:37:21;;;;;;;;;;;14.00;76.10;14.20;98503.00;;;;341903;28;92114;-93
2022/03/30 00:37:32;;;;;;;;;;;14.00;76.10;14.20;98513.00;;;;341831;28;96542;-94
2022/03/30 00:37:44;;;;;;;;;;;14.00;76.10;14.30;98508.00;;;;338858;28;92096;-94
2022/03/30 00:37:56;;;;;;;;;;;13.90;76.00;14.20;98505.00;;;;339585;28;95429;-93
2022/03/30 00:38:08;;;;;;;;;;;13.90;76.00;14.20;98509.00;;;;339007;28;92064;-93
2022/03/30 00:38:20;;;;;;;;;;;13.90;76.20;14.30;98510.00;;;;336456;28;97242;-93
2022/03/30 00:38:32;;;;;;;;;;;13.90;76.20;14.30;98508.00;;;;341661;28;91995;-94
2022/03/30 00:38:44;;;;;;;;;;;13.90;76.40;14.30;98505.00;;;;340530;28;96248;-92
2022/03/30 00:38:56;;;;;;;;;;;13.90;76.20;14.20;98507.00;;;;338980;28;91193;-94
2022/03/30 00:39:08;;;;;;;;;;;13.90;76.40;14.30;98508.00;;;;341875;28;94802;-94
2022/03/30 00:39:19;;;;;;;;;;;13.90;76.30;14.30;98514.00;;;;338937;28;91140;-93
2022/03/30 00:39:31;;;;;;;;;;;13.90;76.10;14.20;98514.00;;;;339127;28;94700;-94
2022/03/30 00:39:43;;;;;;;;;;;13.90;76.00;14.30;98511.00;;;;340123;28;92134;-93
2022/03/30 00:39:55;;;;;;;;;;;13.90;76.30;14.20;98518.00;;;;337116;28;94723;-93
2022/03/30 00:40:09;;;;;;;;;;;13.90;76.20;14.20;98513.00;;;;336804;28;95926;-95
2022/03/30 00:40:21;;;;;;;;;;;13.90;76.20;14.10;98516.00;;;;338969;28;97696;-94
2022/03/30 00:40:32;;;;;;;;;;;13.90;76.20;14.10;98509.00;;;;341649;28;92028;-94
2022/03/30 00:40:45;;;;;;;;;;;13.90;76.40;14.10;98511.00;;;;340554;28;95569;-93
2022/03/30 00:40:56;;;;;;;;;;;13.90;76.50;14.10;98515.00;;;;339713;28;91324;-94
2022/03/30 00:41:08;;;;;;;;;;;13.90;76.40;14.10;98512.00;;;;340463;28;95614;-94
2022/03/30 00:41:20;;;;;;;;;;;13.90;76.40;14.10;98501.00;;;;342943;28;91106;-94
2022/03/30 00:41:32;;;;;;;;;;;13.90;76.50;14.10;98517.00;;;;341786;28;96146;-93
2022/03/30 00:41:44;;;;;;;;;;;13.90;76.30;14.10;98523.00;;;;342890;28;92553;-93
2022/03/30 00:41:56;;;;;;;;;;;13.90;76.20;14.10;98511.00;;;;340646;28;92428;-93
2022/03/30 00:42:20;;;;;;;;;;;13.80;76.20;14.10;98511.00;;;;340175;28;93086;-94
2022/03/30 00:42:32;;;;;;;;;;;13.90;76.20;14.10;98514.00;;;;341903;28;94337;-94
2022/03/30 00:42:44;;;;;;;;;;;13.90;76.20;14.10;98516.00;;;;340359;28;91133;-94
2022/03/30 00:42:55;;;;;;;;;;;13.90;76.20;14.10;98510.00;;;;340310;28;94701;-94
2022/03/30 00:43:07;;;;;;;;;;;13.90;76.20;14.10;98512.00;;;;339428;28;92110;-94
2022/03/30 00:43:20;;;;;;;;;;;13.90;76.20;14.10;98511.00;;;;340491;28;96525;-93
2022/03/30 00:43:33;;;;;;;;;;;13.90;76.30;14.10;98504.00;;;;341733;28;92148;-93
2022/03/30 00:43:45;;;;;;;;;;;13.90;76.30;14.00;98512.00;;;;343158;28;95932;-93
2022/03/30 00:43:57;;;;;;;;;;;13.90;76.40;14.00;98511.00;;;;340645;28;92097;-94
2022/03/30 00:44:10;;;;;;;;;;;13.90;76.50;14.00;98509.00;;;;340511;28;96308;-94
2022/03/30 00:44:27;;;;;;;;;;;13.90;76.60;14.00;98510.00;;;;341567;28;93032;-94
2022/03/30 00:44:39;;;;;;;;;;;13.80;76.30;14.10;98508.00;;;;340601;28;94068;-93
2022/03/30 00:44:51;;;;;;;;;;;13.80;76.10;14.20;98504.00;;;;341632;28;92166;-93
2022/03/30 00:45:21;;;;;;;;;;;13.80;76.00;14.10;98510.00;;;;341827;28;95709;-94
2022/03/30 00:45:33;;;;;;;;;;;13.90;76.30;14.10;98517.00;;;;340246;28;92019;-93
2022/03/30 00:45:45;;;;;;;;;;;13.80;76.40;14.20;98507.00;;;;341850;28;94625;-93
2022/03/30 00:45:57;;;;;;;;;;;13.90;76.30;14.20;98500.00;;;;338566;28;92086;-94
2022/03/30 00:46:12;;;;;;;;;;;13.90;76.20;14.20;98504.00;;;;339019;28;95994;-93
2022/03/30 00:46:24;;;;;;;;;;;13.90;76.20;14.20;98514.00;;;;338208;28;92125;-93
2022/03/30 00:46:37;;;;;;;;;;;13.90;76.50;14.20;98510.00;;;;341777;28;96010;-93
2022/03/30 00:46:48;;;;;;;;;;;13.90;76.40;14.20;98504.00;;;;341494;28;92930;-93
2022/03/30 00:47:00;;;;;;;;;;;13.90;76.50;14.20;98520.00;;;;341738;28;96864;-94
2022/03/30 00:47:14;;;;;;;;;;;13.90;76.50;14.10;98509.00;;;;341647;28;91148;-94
2022/03/30 00:47:27;;;;;;;;;;;13.80;76.30;14.10;98505.00;;;;341717;28;95729;-94
2022/03/30 00:47:39;;;;;;;;;;;13.80;76.60;14.10;98506.00;;;;341536;28;92080;-94
2022/03/30 00:47:51;;;;;;;;;;;13.90;76.50;14.20;98507.00;;;;341856;28;95758;-93
2022/03/30 00:48:03;;;;;;;;;;;13.90;76.40;14.20;98503.00;;;;341623;28;92091;-93
2022/03/30 00:48:15;;;;;;;;;;;13.90;76.30;14.20;98495.00;;;;343276;28;96006;-94
2022/03/30 00:48:27;;;;;;;;;;;13.80;76.40;14.20;98499.00;;;;341491;28;92141;-94
2022/03/30 00:48:42;;;;;;;;;;;13.80;76.40;14.20;98509.00;;;;343343;28;94939;-94
2022/03/30 00:48:55;;;;;;;;;;;13.90;76.60;14.40;98501.00;;;;339998;28;92385;-94
2022/03/30 00:49:06;;;;;;;;;;;13.90;76.40;14.30;98510.00;;;;338265;28;96975;-94
2022/03/30 00:49:18;;;;;;;;;;;13.90;76.40;14.30;98501.00;;;;338898;28;91181;-94
2022/03/30 00:49:30;;;;;;;;;;;13.90;76.30;14.30;98502.00;;;;341867;28;95948;-93
2022/03/30 00:49:42;;;;;;;;;;;13.90;76.30;14.20;98509.00;;;;340255;28;92093;-93
2022/03/30 00:49:54;;;;;;;;;;;13.90;76.40;14.20;98506.00;;;;339893;28;94462;-94
2022/03/30 00:50:07;;;;;;;;;;;13.90;76.60;14.20;98510.00;;;;340092;28;91992;-94
2022/03/30 00:50:20;;;;;;;;;;;13.90;76.40;14.30;98508.00;;;;338995;28;95543;-94
2022/03/30 00:50:32;;;;;;;;;;;13.90;76.40;14.20;98498.00;;;;337557;28;92032;-93
2022/03/30 00:50:43;;;;;;;;;;;13.90;76.70;14.20;98497.00;;;;339159;28;95925;-94
2022/03/30 00:50:55;;;;;;;;;;;13.90;76.60;14.20;98505.00;;;;337525;28;92104;-93
2022/03/30 00:51:07;;;;;;;;;;;13.90;76.70;14.20;98505.00;;;;337769;28;96397;-93
2022/03/30 00:51:20;;;;;;;;;;;13.90;76.90;14.30;98509.00;;;;337596;28;91277;-94
2022/03/30 00:51:32;;;;;;;;;;;13.90;76.80;14.30;98509.00;;;;337814;28;95769;-93
2022/03/30 00:51:44;;;;;;;;;;;13.90;76.70;14.30;98503.00;;;;336253;28;92667;-94
2022/03/30 00:51:55;;;;;;;;;;;13.90;76.80;14.30;98498.00;;;;339025;28;95821;-93
2022/03/30 00:52:07;;;;;;;;;;;13.90;76.60;14.20;98498.00;;;;340293;28;91943;-93
2022/03/30 00:52:23;;;;;;;;;;;13.90;76.60;14.30;98495.00;;;;341679;28;96400;-93
2022/03/30 00:52:35;;;;;;;;;;;13.90;76.60;14.20;98494.00;;;;342938;28;91281;-93
2022/03/30 00:52:48;;;;;;;;;;;13.90;76.60;14.20;98497.00;;;;341883;28;94853;-93
2022/03/30 00:53:00;;;;;;;;;;;13.90;76.70;14.40;98500.00;;;;338751;28;93159;-93
2022/03/30 00:53:11;;;;;;;;;;;13.90;76.50;14.40;98495.00;;;;340078;28;95820;-93
2022/03/30 00:53:23;;;;;;;;;;;13.90;76.50;14.40;98505.00;;;;340211;28;92027;-94
2022/03/30 00:53:36;;;;;;;;;;;13.90;76.60;14.30;98502.00;;;;339060;28;96724;-93
2022/03/30 00:53:48;;;;;;;;;;;13.90;76.60;14.20;98496.00;;;;340247;28;91973;-93
2022/03/30 00:54:00;;;;;;;;;;;13.90;76.50;14.30;98494.00;;;;340496;28;96033;-94
2022/03/30 00:54:12;;;;;;;;;;;13.90;76.50;14.30;98499.00;;;;340277;28;92065;-93
2022/03/30 00:54:24;;;;;;;;;;;13.90;76.30;14.20;98498.00;;;;340512;28;95678;-93
2022/03/30 00:54:36;;;;;;;;;;;13.90;76.20;14.30;98498.00;;;;338900;28;92056;-94
2022/03/30 00:54:50;;;;;;;;;;;13.90;76.40;14.20;98499.00;;;;339115;28;96201;-93
2022/03/30 00:55:02;;;;;;;;;;;13.90;76.80;14.30;98498.00;;;;342135;28;93204;-93
2022/03/30 00:55:16;;;;;;;;;;;13.90;76.70;14.30;98498.00;;;;337940;28;95715;-94
2022/03/30 00:55:28;;;;;;;;;;;13.90;76.70;14.40;98505.00;;;;337397;28;91988;-94
2022/03/30 00:55:40;;;;;;;;;;;13.90;76.60;14.40;98502.00;;;;340382;28;95599;-93
2022/03/30 00:55:53;;;;;;;;;;;13.90;76.50;14.30;98504.00;;;;339172;28;92089;-93
2022/03/30 00:56:05;;;;;;;;;;;13.90;76.70;14.30;98499.00;;;;341858;28;95418;-93
2022/03/30 00:56:17;;;;;;;;;;;13.90;76.70;14.30;98499.00;;;;340207;28;91989;-94
2022/03/30 00:56:30;;;;;;;;;;;13.90;76.70;14.20;98497.00;;;;340520;28;95195;-93
2022/03/30 00:56:42;;;;;;;;;;;13.90;76.80;14.20;98496.00;;;;341600;28;92063;-94
2022/03/30 00:56:55;;;;;;;;;;;13.90;76.80;14.20;98490.00;;;;341649;28;94645;-93
2022/03/30 00:57:08;;;;;;;;;;;13.90;76.90;14.20;98492.00;;;;338692;28;93023;-94
2022/03/30 00:57:21;;;;;;;;;;;13.90;76.90;14.30;98491.00;;;;340465;28;97260;-93
2022/03/30 00:57:33;;;;;;;;;;;13.90;76.60;14.30;98494.00;;;;338870;28;92097;-93
2022/03/30 00:57:46;;;;;;;;;;;13.90;76.60;14.30;98495.00;;;;340533;28;95005;-94
2022/03/30 00:57:58;;;;;;;;;;;13.90;76.40;14.40;98492.00;;;;339568;28;91310;-93
2022/03/30 00:58:10;;;;;;;;;;;13.90;76.30;14.40;98494.00;;;;341762;28;96000;-92
2022/03/30 00:58:22;;;;;;;;;;;13.90;76.50;14.30;98488.00;;;;341480;28;92033;-93
2022/03/30 00:58:34;;;;;;;;;;;13.90;76.70;14.30;98493.00;;;;341829;28;94603;-93
2022/03/30 00:58:46;;;;;;;;;;;13.90;76.70;14.30;98496.00;;;;341602;28;91997;-93
2022/03/30 00:59:00;;;;;;;;;;;13.90;76.50;14.40;98500.00;;;;339319;28;94497;-94
2022/03/30 00:59:12;;;;;;;;;;;13.90;76.80;14.30;98490.00;;;;337595;28;92980;-94
2022/03/30 00:59:24;;;;;;;;;;;13.90;76.70;14.20;98490.00;;;;339184;28;96735;-94
2022/03/30 00:59:36;;;;;;;;;;;13.90;76.80;14.20;98492.00;;;;337452;28;92009;-93
2022/03/30 00:59:48;;;;;;;;;;;13.90;76.70;14.30;98495.00;;;;339176;28;95806;-94
2022/03/30 01:00:00;;;;;;;;;;;13.90;76.60;14.30;98490.00;;;;339068;28;91875;-94
2022/03/30 01:00:15;;;;;;;;;;;13.90;76.60;14.20;98496.00;;;;340524;28;95916;-94
2022/03/30 01:00:27;;;;;;;;;;;13.90;76.60;14.30;98503.00;;;;338918;28;92026;-94
2022/03/30 01:00:39;;;;;;;;;;;13.90;76.60;14.40;98499.00;;;;337839;28;95066;-94
2022/03/30 01:00:51;;;;;;;;;;;13.90;76.40;14.30;98490.00;;;;339697;28;92010;-94
2022/03/30 01:01:03;;;;;;;;;;;13.90;76.40;14.20;98485.00;;;;337414;28;94541;-93
2022/03/30 01:01:15;;;;;;;;;;;13.90;76.40;14.20;98491.00;;;;337408;28;92122;-94